createdAt,value
2022-12-01T00:01:29.172Z,-0.60
2022-12-01T00:03:57.017Z,-0.60
2022-12-01T00:06:26.188Z,-0.60
2022-12-01T00:09:16.487Z,-0.60
2022-12-01T00:11:47.570Z,-0.59
2022-12-01T00:14:16.423Z,-0.60
2022-12-01T00:16:44.990Z,-0.59
2022-12-01T00:19:13.019Z,-0.59
2022-12-01T00:21:42.500Z,-0.58
2022-12-01T00:24:11.586Z,-0.56
2022-12-01T00:26:39.754Z,-0.62
2022-12-01T00:29:07.683Z,-0.53
2022-12-01T00:31:35.712Z,-0.53
2022-12-01T00:34:06.883Z,-0.51
2022-12-01T00:36:38.870Z,-0.49
2022-12-01T00:39:07.995Z,-0.47
2022-12-01T00:41:35.774Z,-0.46
2022-12-01T00:44:03.689Z,-0.46
2022-12-01T00:46:31.500Z,-0.44
2022-12-01T00:48:59.379Z,-0.46
2022-12-01T00:51:27.508Z,-0.44
2022-12-01T00:53:55.533Z,-0.47
2022-12-01T00:56:24.868Z,-0.45
2022-12-01T00:58:52.648Z,-0.42
2022-12-01T01:01:20.788Z,-0.41
2022-12-01T01:03:48.803Z,-0.37
2022-12-01T01:06:17.010Z,-0.36
2022-12-01T01:08:44.997Z,-0.36
2022-12-01T01:11:12.795Z,-0.35
2022-12-01T01:13:42.116Z,-0.35
2022-12-01T01:16:16.451Z,-0.37
2022-12-01T01:18:44.579Z,-0.35
2022-12-01T01:21:15.113Z,-0.35
2022-12-01T01:23:43.617Z,-0.31
2022-12-01T01:26:15.273Z,-0.31
2022-12-01T01:28:44.796Z,-0.31
2022-12-01T01:31:14.794Z,-0.29
2022-12-01T01:33:43.180Z,-0.26
2022-12-01T01:36:11.162Z,-0.22
2022-12-01T01:38:39.251Z,-0.18
2022-12-01T01:41:08.149Z,-0.13
2022-12-01T01:43:46.436Z,-0.10
2022-12-01T01:46:16.844Z,-0.16
2022-12-01T01:48:55.754Z,-0.07
2022-12-01T01:51:27.293Z,-0.05
2022-12-01T01:54:00.237Z,-0.01
2022-12-01T01:56:29.215Z,0.02
2022-12-01T01:58:59.565Z,0.03
2022-12-01T02:01:27.491Z,-0.17
2022-12-01T02:03:56.005Z,0.06
2022-12-01T02:06:24.700Z,0.07
2022-12-01T02:08:52.741Z,-0.07
2022-12-01T02:11:56.164Z,0.12
2022-12-01T02:14:39.921Z,0.13
2022-12-01T02:17:20.271Z,0.14
2022-12-01T02:20:24.834Z,0.13
2022-12-01T02:23:11.327Z,0.14
2022-12-01T02:25:49.950Z,0.13
2022-12-01T02:28:42.057Z,0.13
2022-12-01T02:31:17.178Z,0.13
2022-12-01T02:33:53.793Z,0.12
2022-12-01T02:36:31.344Z,0.13
2022-12-01T02:39:07.459Z,0.12
2022-12-01T02:41:40.396Z,0.12
2022-12-01T02:44:14.869Z,0.15
2022-12-01T02:46:49.963Z,0.16
2022-12-01T02:49:21.789Z,0.16
2022-12-01T02:51:51.603Z,0.17
2022-12-01T02:54:20.873Z,0.17
2022-12-01T02:56:52.942Z,0.15
2022-12-01T02:59:20.810Z,0.16
2022-12-01T03:02:05.517Z,0.12
2022-12-01T03:04:44.189Z,0.13
2022-12-01T03:07:24.295Z,0.10
2022-12-01T03:10:02.418Z,0.09
2022-12-01T03:12:38.682Z,0.10
2022-12-01T03:15:12.432Z,0.09
2022-12-01T03:17:50.480Z,0.08
2022-12-01T03:20:25.623Z,0.09
2022-12-01T03:23:00.497Z,0.07
2022-12-01T03:25:30.776Z,0.09
2022-12-01T03:28:20.648Z,0.11
2022-12-01T03:30:52.021Z,0.11
2022-12-01T03:33:28.093Z,0.13
2022-12-01T03:36:01.632Z,0.14
2022-12-01T03:38:32.021Z,0.13
2022-12-01T03:41:04.609Z,0.14
2022-12-01T03:43:36.125Z,0.14
2022-12-01T03:46:10.789Z,0.16
2022-12-01T03:48:40.775Z,0.16
2022-12-01T03:51:16.246Z,0.18
2022-12-01T03:53:53.936Z,0.18
2022-12-01T03:56:26.303Z,0.17
2022-12-01T03:58:58.539Z,0.08
2022-12-01T04:01:28.280Z,0.17
2022-12-01T04:03:57.578Z,0.17
2022-12-01T04:06:25.415Z,0.16
2022-12-01T04:08:53.280Z,0.16
2022-12-01T04:11:38.558Z,0.13
2022-12-01T04:14:06.391Z,0.11
2022-12-01T04:16:34.137Z,0.10
2022-12-01T04:19:03.421Z,0.08
2022-12-01T04:21:31.377Z,0.06
2022-12-01T04:24:01.780Z,0.04
2022-12-01T04:26:32.198Z,0.04
2022-12-01T04:29:00.800Z,-0.01
2022-12-01T04:31:29.367Z,-0.05
2022-12-01T04:33:57.576Z,0.02
2022-12-01T04:36:27.498Z,0.03
2022-12-01T04:38:55.263Z,0.02
2022-12-01T04:41:23.261Z,-0.04
2022-12-01T04:43:53.620Z,0.00
2022-12-01T04:46:21.484Z,0.03
2022-12-01T04:48:49.292Z,0.01
2022-12-01T04:51:17.069Z,-0.03
2022-12-01T04:53:46.319Z,-0.06
2022-12-01T04:56:14.148Z,-0.06
2022-12-01T04:58:41.891Z,-0.14
2022-12-01T05:01:12.915Z,-0.17
2022-12-01T05:03:42.392Z,-0.19
2022-12-01T05:06:12.893Z,-0.25
2022-12-01T05:08:40.935Z,-0.28
2022-12-01T05:11:12.256Z,-0.35
2022-12-01T05:13:41.082Z,-0.32
2022-12-01T05:16:11.547Z,-0.31
2022-12-01T05:18:39.719Z,-0.32
2022-12-01T05:21:10.076Z,-0.31
2022-12-01T05:23:39.627Z,-0.31
2022-12-01T05:26:09.241Z,-0.29
2022-12-01T05:28:38.808Z,-0.27
2022-12-01T05:31:07.013Z,-0.25
2022-12-01T05:33:34.873Z,-0.22
2022-12-01T05:36:02.645Z,-0.19
2022-12-01T05:38:30.435Z,-0.20
2022-12-01T05:40:58.231Z,-0.17
2022-12-01T05:43:29.371Z,-0.20
2022-12-01T05:45:59.337Z,-0.24
2022-12-01T05:48:27.198Z,-0.16
2022-12-01T05:50:55.112Z,-0.15
2022-12-01T05:53:23.224Z,-0.17
2022-12-01T05:55:53.645Z,-0.16
2022-12-01T05:58:21.861Z,-0.18
2022-12-01T06:00:49.707Z,-0.22
2022-12-01T06:03:18.955Z,-0.18
2022-12-01T06:05:46.915Z,-0.24
2022-12-01T06:08:14.774Z,-0.25
2022-12-01T06:10:42.638Z,-0.29
2022-12-01T06:13:10.529Z,-0.28
2022-12-01T06:15:38.509Z,-0.33
2022-12-01T06:18:06.406Z,-0.35
2022-12-01T06:20:35.716Z,-0.36
2022-12-01T06:23:03.569Z,-0.31
2022-12-01T06:25:31.635Z,-0.32
2022-12-01T06:27:59.620Z,-0.32
2022-12-01T06:30:27.836Z,-0.36
2022-12-01T06:32:55.828Z,-0.31
2022-12-01T06:35:23.650Z,-0.28
2022-12-01T06:37:54.222Z,-0.32
2022-12-01T06:40:22.627Z,-0.35
2022-12-01T06:42:50.582Z,-0.34
2022-12-01T06:45:18.414Z,-0.33
2022-12-01T06:47:48.196Z,-0.31
2022-12-01T06:50:17.414Z,-0.33
2022-12-01T06:52:46.384Z,-0.25
2022-12-01T06:55:16.159Z,-0.21
2022-12-01T06:57:44.332Z,-0.10
2022-12-01T07:00:14.384Z,-0.13
2022-12-01T07:02:42.354Z,-0.13
2022-12-01T07:05:11.023Z,-0.14
2022-12-01T07:07:40.481Z,-0.16
2022-12-01T07:10:10.414Z,0.03
2022-12-01T07:12:39.789Z,0.03
2022-12-01T07:15:09.341Z,-0.05
2022-12-01T07:17:37.392Z,-0.11
2022-12-01T07:20:05.913Z,-0.11
2022-12-01T07:22:33.787Z,-0.04
2022-12-01T07:25:01.635Z,-0.07
2022-12-01T07:27:31.265Z,0.02
2022-12-01T07:30:00.531Z,0.02
2022-12-01T07:32:28.308Z,-0.05
2022-12-01T07:34:56.306Z,-0.11
2022-12-01T07:37:24.601Z,-0.15
2022-12-01T07:39:52.436Z,-0.26
2022-12-01T07:42:20.460Z,-0.25
2022-12-01T07:44:48.286Z,-0.29
2022-12-01T07:47:17.419Z,-0.28
2022-12-01T07:49:45.363Z,-0.31
2022-12-01T07:52:13.292Z,-0.34
2022-12-01T07:54:41.267Z,-0.35
2022-12-01T07:57:09.113Z,-0.37
2022-12-01T07:59:37.070Z,-0.37
2022-12-01T08:02:04.904Z,-0.34
2022-12-01T08:04:34.086Z,-0.29
2022-12-01T08:07:01.949Z,-0.31
2022-12-01T08:09:29.822Z,-0.34
2022-12-01T08:11:57.624Z,-0.32
2022-12-01T08:14:25.405Z,-0.29
2022-12-01T08:16:53.203Z,-0.29
2022-12-01T08:19:21.068Z,-0.25
2022-12-01T08:21:50.211Z,-0.20
2022-12-01T08:24:18.022Z,-0.20
2022-12-01T08:26:45.875Z,-0.18
2022-12-01T08:29:18.545Z,-0.15
2022-12-01T08:31:47.824Z,-0.16
2022-12-01T08:34:15.779Z,-0.13
2022-12-01T08:36:43.704Z,-0.14
2022-12-01T08:39:13.135Z,-0.10
2022-12-01T08:41:40.949Z,-0.09
2022-12-01T08:44:10.359Z,-0.06
2022-12-01T08:46:39.128Z,-0.06
2022-12-01T08:49:07.762Z,-0.07
2022-12-01T08:51:36.415Z,-0.05
2022-12-01T08:54:05.172Z,-0.04
2022-12-01T08:56:36.901Z,-0.02
2022-12-01T08:59:05.117Z,0.01
2022-12-01T09:01:33.882Z,0.05
2022-12-01T09:04:07.732Z,0.09
2022-12-01T09:06:39.570Z,0.16
2022-12-01T09:09:07.712Z,0.24
2022-12-01T09:11:36.900Z,0.32
2022-12-01T09:14:04.924Z,0.38
2022-12-01T09:16:33.930Z,0.48
2022-12-01T09:19:02.055Z,0.52
2022-12-01T09:21:31.910Z,0.54
2022-12-01T09:24:00.260Z,0.52
2022-12-01T09:26:28.773Z,0.54
2022-12-01T09:28:59.794Z,0.54
2022-12-01T09:31:28.090Z,0.52
2022-12-01T09:33:57.332Z,0.53
2022-12-01T09:36:25.718Z,0.51
2022-12-01T09:38:53.896Z,0.51
2022-12-01T09:41:25.643Z,0.51
2022-12-01T09:43:58.113Z,0.53
2022-12-01T09:46:31.709Z,0.52
2022-12-01T09:49:02.699Z,0.55
2022-12-01T09:51:34.828Z,0.57
2022-12-01T09:54:03.722Z,0.53
2022-12-01T09:56:37.464Z,0.59
2022-12-01T09:59:09.232Z,0.54
2022-12-01T10:01:39.976Z,0.57
2022-12-01T10:04:14.076Z,0.57
2022-12-01T10:06:50.054Z,0.59
2022-12-01T10:09:25.369Z,0.58
2022-12-01T10:11:56.094Z,0.60
2022-12-01T10:14:24.129Z,0.57
2022-12-01T10:17:05.762Z,0.60
2022-12-01T10:19:41.075Z,0.64
2022-12-01T10:22:23.784Z,0.65
2022-12-01T10:24:56.261Z,0.64
2022-12-01T10:27:44.005Z,0.64
2022-12-01T10:30:16.878Z,0.63
2022-12-01T10:32:53.188Z,0.65
2022-12-01T10:35:23.773Z,0.57
2022-12-01T10:37:56.555Z,0.65
2022-12-01T10:40:25.387Z,0.68
2022-12-01T10:42:53.438Z,0.70
2022-12-01T10:45:24.583Z,0.70
2022-12-01T10:48:15.750Z,0.72
2022-12-01T10:50:45.428Z,0.72
2022-12-01T10:53:28.022Z,0.73
2022-12-01T10:56:07.500Z,0.66
2022-12-01T10:58:45.038Z,0.71
2022-12-01T11:01:19.822Z,0.71
2022-12-01T11:03:54.214Z,0.73
2022-12-01T11:06:25.571Z,0.61
2022-12-01T11:08:56.876Z,0.69
2022-12-01T11:11:28.841Z,0.72
2022-12-01T11:13:58.460Z,0.73
2022-12-01T11:16:51.979Z,0.70
2022-12-01T11:19:30.841Z,0.70
2022-12-01T11:22:00.792Z,0.69
2022-12-01T11:24:32.055Z,0.68
2022-12-01T11:27:01.306Z,0.69
2022-12-01T11:29:35.518Z,0.70
2022-12-01T11:32:17.415Z,0.71
2022-12-01T11:34:51.756Z,0.71
2022-12-01T11:37:23.172Z,0.69
2022-12-01T11:39:52.963Z,0.71
2022-12-01T11:42:27.382Z,0.69
2022-12-01T11:44:58.144Z,0.71
2022-12-01T11:47:28.210Z,0.75
2022-12-01T11:49:58.907Z,0.78
2022-12-01T11:52:30.825Z,0.79
2022-12-01T11:55:06.932Z,0.79
2022-12-01T11:57:40.360Z,0.81
2022-12-01T12:00:15.059Z,0.76
2022-12-01T12:02:54.193Z,0.76
2022-12-01T12:06:05.954Z,0.76
2022-12-01T12:08:58.963Z,0.69
2022-12-01T12:11:37.870Z,0.78
2022-12-01T12:14:24.404Z,0.80
2022-12-01T12:17:07.970Z,0.69
2022-12-01T12:20:11.345Z,0.68
2022-12-01T12:22:55.531Z,0.74
2022-12-01T12:25:33.769Z,0.73
2022-12-01T12:28:15.663Z,0.72
2022-12-01T12:30:50.462Z,0.70
2022-12-01T12:33:42.439Z,0.74
2022-12-01T12:36:20.137Z,0.74
2022-12-01T12:39:03.728Z,0.77
2022-12-01T12:41:37.654Z,0.78
2022-12-01T12:44:28.308Z,0.84
2022-12-01T12:47:07.232Z,0.88
2022-12-01T12:49:41.309Z,0.88
2022-12-01T12:52:14.649Z,0.80
2022-12-01T12:54:48.895Z,0.83
2022-12-01T12:57:28.371Z,0.83
2022-12-01T13:00:02.067Z,0.84
2022-12-01T13:02:37.359Z,0.84
2022-12-01T13:05:11.434Z,0.85
2022-12-01T13:07:45.907Z,0.83
2022-12-01T13:10:25.826Z,0.85
2022-12-01T13:13:00.315Z,0.91
2022-12-01T13:15:30.791Z,0.87
2022-12-01T13:18:03.763Z,0.84
2022-12-01T13:20:34.876Z,0.83
2022-12-01T13:23:03.995Z,0.82
2022-12-01T13:25:39.534Z,0.83
2022-12-01T13:28:16.193Z,0.79
2022-12-01T13:30:59.506Z,0.81
2022-12-01T13:33:27.809Z,0.80
2022-12-01T13:36:23.048Z,0.79
2022-12-01T13:38:57.987Z,0.81
2022-12-01T13:41:29.645Z,0.81
2022-12-01T13:44:01.359Z,0.77
2022-12-01T13:46:32.249Z,0.73
2022-12-01T13:49:04.351Z,0.70
2022-12-01T13:52:06.220Z,0.74
2022-12-01T13:54:37.228Z,0.76
2022-12-01T13:57:12.974Z,0.79
2022-12-01T14:00:03.348Z,0.79
2022-12-01T14:02:32.936Z,0.79
2022-12-01T14:05:30.620Z,0.81
2022-12-01T14:07:58.972Z,0.80
2022-12-01T14:10:32.023Z,0.82
2022-12-01T14:13:05.713Z,0.80
2022-12-01T14:15:40.367Z,0.54
2022-12-01T14:18:21.145Z,0.80
2022-12-01T14:20:50.585Z,0.80
2022-12-01T14:23:25.298Z,0.80
2022-12-01T14:26:06.161Z,0.83
2022-12-01T14:29:11.048Z,0.84
2022-12-01T14:32:05.645Z,0.81
2022-12-01T14:34:35.231Z,0.82
2022-12-01T14:37:11.115Z,0.83
2022-12-01T14:39:42.311Z,0.84
2022-12-01T14:42:46.276Z,0.85
2022-12-01T14:45:24.883Z,0.88
2022-12-01T14:47:59.967Z,0.90
2022-12-01T14:50:40.884Z,0.96
2022-12-01T14:53:20.563Z,0.95
2022-12-01T14:55:53.139Z,1.00
2022-12-01T14:58:25.073Z,1.00
2022-12-01T15:01:07.124Z,1.00
2022-12-01T15:03:40.812Z,1.00
2022-12-01T15:06:09.466Z,1.01
2022-12-01T15:08:43.631Z,1.04
2022-12-01T15:11:22.874Z,1.03
2022-12-01T15:13:53.165Z,1.04
2022-12-01T15:16:24.793Z,1.05
2022-12-01T15:18:53.362Z,0.91
2022-12-01T15:21:24.081Z,1.03
2022-12-01T15:24:00.620Z,1.03
2022-12-01T15:26:31.623Z,1.00
2022-12-01T15:29:17.342Z,1.03
2022-12-01T15:31:50.033Z,1.05
2022-12-01T15:34:21.512Z,1.03
2022-12-01T15:36:49.486Z,1.05
2022-12-01T15:39:19.920Z,1.04
2022-12-01T15:41:53.824Z,1.05
2022-12-01T15:44:27.053Z,1.07
2022-12-01T15:46:56.777Z,1.06
2022-12-01T15:49:30.088Z,1.06
2022-12-01T15:52:08.075Z,1.06
2022-12-01T15:54:37.324Z,1.06
2022-12-01T15:57:06.555Z,1.07
2022-12-01T15:59:39.635Z,1.07
2022-12-01T16:02:23.896Z,1.04
2022-12-01T16:05:01.830Z,1.01
2022-12-01T16:08:04.574Z,1.01
2022-12-01T16:10:31.377Z,1.00
2022-12-01T16:13:36.749Z,0.97
2022-12-01T16:16:31.143Z,0.93
2022-12-01T16:19:03.188Z,0.85
2022-12-01T16:21:34.731Z,0.93
2022-12-01T16:24:04.334Z,0.99
2022-12-01T16:26:33.802Z,1.01
2022-12-01T16:29:01.868Z,1.02
2022-12-01T16:31:29.703Z,1.01
2022-12-01T16:34:18.615Z,1.01
2022-12-01T16:36:52.081Z,1.04
2022-12-01T16:39:19.890Z,1.03
2022-12-01T16:41:48.008Z,1.03
2022-12-01T16:44:32.158Z,1.04
2022-12-01T16:47:00.006Z,1.05
2022-12-01T16:49:29.333Z,1.06
2022-12-01T16:51:58.193Z,1.05
2022-12-01T16:54:29.365Z,1.05
2022-12-01T16:56:58.845Z,1.04
2022-12-01T16:59:27.401Z,1.05
2022-12-01T17:01:55.402Z,1.08
2022-12-01T17:04:23.306Z,1.11
2022-12-01T17:06:52.650Z,1.11
2022-12-01T17:09:20.561Z,1.13
2022-12-01T17:11:48.372Z,1.17
2022-12-01T17:14:16.269Z,1.18
2022-12-01T17:16:44.164Z,1.20
2022-12-01T17:19:12.097Z,1.21
2022-12-01T17:21:39.837Z,1.21
2022-12-01T17:24:09.563Z,1.19
2022-12-01T17:26:37.712Z,1.15
2022-12-01T17:29:05.461Z,1.10
2022-12-01T17:31:33.248Z,1.01
2022-12-01T17:34:01.220Z,0.97
2022-12-01T17:36:28.988Z,0.96
2022-12-01T17:38:58.642Z,0.91
2022-12-01T17:41:32.449Z,0.92
2022-12-01T17:44:03.264Z,0.85
2022-12-01T17:46:31.753Z,0.72
2022-12-01T17:48:59.829Z,0.74
2022-12-01T17:51:27.779Z,0.66
2022-12-01T17:53:56.033Z,0.59
2022-12-01T17:56:23.832Z,0.51
2022-12-01T17:58:52.996Z,0.45
2022-12-01T18:01:25.446Z,0.37
2022-12-01T18:03:57.914Z,0.30
2022-12-01T18:06:26.807Z,0.25
2022-12-01T18:08:54.920Z,0.17
2022-12-01T18:11:24.093Z,0.12
2022-12-01T18:13:54.606Z,0.08
2022-12-01T18:16:25.151Z,0.06
2022-12-01T18:18:54.183Z,0.05
2022-12-01T18:21:24.007Z,-0.05
2022-12-01T18:23:53.120Z,-0.01
2022-12-01T18:26:22.139Z,0.12
2022-12-01T18:28:56.445Z,0.14
2022-12-01T18:31:24.874Z,0.12
2022-12-01T18:33:52.944Z,0.05
2022-12-01T18:36:22.974Z,-0.04
2022-12-01T18:38:52.016Z,-0.04
2022-12-01T18:41:20.390Z,-0.08
2022-12-01T18:43:48.544Z,-0.17
2022-12-01T18:46:19.632Z,-0.19
2022-12-01T18:48:49.313Z,-0.17
2022-12-01T18:51:17.237Z,-0.24
2022-12-01T18:53:45.479Z,-0.31
2022-12-01T18:56:15.303Z,-0.33
2022-12-01T18:58:43.905Z,-0.28
2022-12-01T19:01:21.986Z,-0.15
2022-12-01T19:03:50.602Z,-0.11
2022-12-01T19:06:18.972Z,-0.08
2022-12-01T19:08:47.036Z,-0.08
2022-12-01T19:11:15.247Z,-0.07
2022-12-01T19:13:43.247Z,-0.06
2022-12-01T19:16:15.853Z,-0.01
2022-12-01T19:18:45.892Z,0.05
2022-12-01T19:21:15.766Z,0.12
2022-12-01T19:23:44.168Z,0.18
2022-12-01T19:26:13.890Z,0.24
2022-12-01T19:28:42.303Z,0.18
2022-12-01T19:31:12.291Z,0.32
2022-12-01T19:33:40.627Z,0.35
2022-12-01T19:36:12.357Z,0.39
2022-12-01T19:38:41.027Z,0.42
2022-12-01T19:41:10.214Z,0.46
2022-12-01T19:43:39.562Z,0.48
2022-12-01T19:46:08.635Z,0.56
2022-12-01T19:48:36.692Z,0.58
2022-12-01T19:51:05.070Z,0.59
2022-12-01T19:53:34.539Z,0.62
2022-12-01T19:56:03.437Z,0.64
2022-12-01T19:58:34.603Z,0.68
2022-12-01T20:01:06.684Z,0.70
2022-12-01T20:03:34.911Z,0.76
2022-12-01T20:06:03.807Z,0.76
2022-12-01T20:08:35.654Z,0.76
2022-12-01T20:11:06.381Z,0.85
2022-12-01T20:13:35.385Z,0.86
2022-12-01T20:16:04.491Z,0.86
2022-12-01T20:18:32.745Z,0.85
2022-12-01T20:21:07.446Z,0.87
2022-12-01T20:23:35.953Z,0.88
2022-12-01T20:26:07.875Z,0.87
2022-12-01T20:28:37.679Z,0.88
2022-12-01T20:31:10.921Z,0.89
2022-12-01T20:33:39.035Z,0.48
2022-12-01T20:36:07.201Z,0.93
2022-12-01T20:38:35.580Z,0.98
2022-12-01T20:41:05.018Z,0.98
2022-12-01T20:43:33.141Z,1.00
2022-12-01T20:46:01.885Z,0.92
2022-12-01T20:48:30.198Z,1.05
2022-12-01T20:51:00.583Z,1.08
2022-12-01T20:53:28.516Z,1.14
2022-12-01T20:55:56.651Z,1.15
2022-12-01T20:58:25.801Z,1.19
2022-12-01T21:00:54.252Z,1.26
2022-12-01T21:03:22.128Z,1.30
2022-12-01T21:05:49.910Z,1.29
2022-12-01T21:08:17.867Z,1.30
2022-12-01T21:10:47.172Z,1.28
2022-12-01T21:13:33.714Z,1.29
2022-12-01T21:16:08.225Z,1.28
2022-12-01T21:18:45.990Z,1.31
2022-12-01T21:21:23.352Z,1.28
2022-12-01T21:24:03.047Z,1.31
2022-12-01T21:26:30.821Z,1.31
2022-12-01T21:29:00.845Z,1.36
2022-12-01T21:31:30.134Z,1.40
2022-12-01T21:33:57.952Z,1.37
2022-12-01T21:36:31.312Z,1.40
2022-12-01T21:39:13.174Z,1.40
2022-12-01T21:41:41.110Z,1.38
2022-12-01T21:44:14.849Z,1.15
2022-12-01T21:46:44.686Z,1.29
2022-12-01T21:49:19.615Z,1.36
2022-12-01T21:51:49.022Z,1.34
2022-12-01T21:54:20.359Z,1.36
2022-12-01T21:56:49.552Z,1.34
2022-12-01T21:59:20.946Z,1.33
2022-12-01T22:01:53.961Z,1.28
2022-12-01T22:04:23.583Z,1.32
2022-12-01T22:06:53.731Z,1.38
2022-12-01T22:09:25.298Z,1.41
2022-12-01T22:11:55.400Z,1.43
2022-12-01T22:14:25.076Z,1.45
2022-12-01T22:16:57.561Z,1.36
2022-12-01T22:19:31.606Z,1.44
2022-12-01T22:22:04.858Z,1.41
2022-12-01T22:24:40.622Z,1.42
2022-12-01T22:27:25.949Z,1.39
2022-12-01T22:29:57.465Z,1.36
2022-12-01T22:32:37.695Z,1.36
2022-12-01T22:35:34.746Z,1.36
2022-12-01T22:38:30.527Z,1.37
2022-12-01T22:41:01.667Z,1.35
2022-12-01T22:43:33.346Z,1.34
2022-12-01T22:46:28.206Z,1.34
2022-12-01T22:48:59.299Z,1.30
2022-12-01T22:51:30.540Z,1.33
2022-12-01T22:54:08.313Z,1.32
2022-12-01T22:56:39.305Z,1.32
2022-12-01T22:59:19.814Z,1.30
2022-12-01T23:01:53.504Z,1.34
2022-12-01T23:04:28.035Z,1.23
2022-12-01T23:07:04.736Z,1.33
2022-12-01T23:09:35.908Z,1.21
2022-12-01T23:12:21.215Z,1.42
2022-12-01T23:14:51.546Z,1.44
2022-12-01T23:17:21.686Z,1.43
2022-12-01T23:19:52.752Z,1.46
2022-12-01T23:22:21.055Z,1.51
2022-12-01T23:27:49.531Z,1.52
2022-12-01T23:30:19.709Z,1.54
2022-12-01T23:32:54.211Z,1.57
2022-12-01T23:35:23.478Z,1.54
2022-12-01T23:37:51.451Z,1.50
2022-12-01T23:40:22.322Z,1.54
2022-12-01T23:42:50.710Z,1.57
2022-12-01T23:45:22.549Z,1.52
2022-12-01T23:47:51.536Z,1.55
2022-12-01T23:50:22.695Z,1.55
2022-12-01T23:52:51.854Z,1.51
2022-12-01T23:55:22.874Z,1.52
